createdAt,value
2017-08-21T00:00:02.564Z,13.5
2017-08-21T00:05:05.375Z,13.5
2017-08-21T00:10:02.970Z,13.5
2017-08-21T00:15:02.522Z,13.6
2017-08-21T00:20:03.139Z,13.6
2017-08-21T00:25:02.555Z,13.6
2017-08-21T00:30:03.160Z,13.6
2017-08-21T00:35:02.614Z,13.5
2017-08-21T00:40:03.177Z,13.5
2017-08-21T00:45:02.698Z,13.3
2017-08-21T00:50:03.117Z,13.1
2017-08-21T00:55:02.529Z,13.3
2017-08-21T01:00:03.145Z,13.1
2017-08-21T01:05:02.656Z,13.1
2017-08-21T01:10:03.162Z,13.1
2017-08-21T01:15:02.531Z,12.8
2017-08-21T01:20:03.007Z,12.8
2017-08-21T01:25:02.413Z,12.8
2017-08-21T01:30:02.835Z,12.8
2017-08-21T01:35:02.396Z,12.5
2017-08-21T01:40:02.830Z,12.5
2017-08-21T01:45:03.312Z,12.5
2017-08-21T01:50:02.702Z,12.5
2017-08-21T01:55:03.249Z,12.5
2017-08-21T02:00:02.755Z,12.1
2017-08-21T02:05:03.302Z,12.1
2017-08-21T02:10:02.704Z,12.1
2017-08-21T02:15:03.245Z,11.8
2017-08-21T02:20:02.768Z,11.8
2017-08-21T02:25:03.246Z,11.6
2017-08-21T02:30:02.739Z,11.6
2017-08-21T02:35:03.270Z,11.6
2017-08-21T02:40:02.860Z,11.6
2017-08-21T02:45:02.396Z,11.3
2017-08-21T02:50:03.037Z,11.3
2017-08-21T02:55:02.601Z,11.3
2017-08-21T03:00:03.162Z,11.3
2017-08-21T03:05:02.660Z,11.3
2017-08-21T03:10:03.286Z,11.6
2017-08-21T03:15:02.821Z,11.6
2017-08-21T03:20:03.294Z,11.6
2017-08-21T03:25:02.843Z,11.6
2017-08-21T03:30:03.296Z,11.6
2017-08-21T03:35:02.919Z,11.6
2017-08-21T03:40:02.477Z,11.6
2017-08-21T03:45:02.892Z,11.3
2017-08-21T03:50:02.441Z,11.3
2017-08-21T03:55:03.038Z,11.3
2017-08-21T04:00:02.573Z,11.6
2017-08-21T04:05:03.186Z,11.6
2017-08-21T04:10:02.728Z,11.8
2017-08-21T04:15:04.065Z,12.0
2017-08-21T04:20:02.469Z,12.0
2017-08-21T04:25:03.004Z,12.0
2017-08-21T04:30:02.567Z,12.1
2017-08-21T04:35:03.137Z,12.0
2017-08-21T04:40:02.692Z,12.0
2017-08-21T04:45:03.306Z,12.1
2017-08-21T04:50:02.891Z,12.1
2017-08-21T04:55:03.230Z,12.1
2017-08-21T05:00:02.721Z,12.3
2017-08-21T05:05:03.209Z,12.3
2017-08-21T05:10:02.803Z,12.3
2017-08-21T05:15:03.180Z,12.3
2017-08-21T05:20:02.605Z,12.3
2017-08-21T05:25:03.205Z,12.5
2017-08-21T05:30:02.795Z,12.6
2017-08-21T05:35:02.396Z,12.6
2017-08-21T05:40:03.023Z,12.8
2017-08-21T05:45:02.491Z,12.8
2017-08-21T05:50:02.953Z,12.8
2017-08-21T05:55:02.477Z,13.1
2017-08-21T06:00:02.969Z,13.1
2017-08-21T06:05:02.407Z,13.3
2017-08-21T06:10:02.959Z,13.5
2017-08-21T06:15:02.401Z,13.5
2017-08-21T06:20:03.000Z,13.5
2017-08-21T06:25:02.511Z,13.5
2017-08-21T06:30:03.072Z,13.5
2017-08-21T06:35:02.489Z,13.8
2017-08-21T06:40:02.979Z,14.0
2017-08-21T06:45:02.562Z,14.5
2017-08-21T06:50:03.135Z,14.8
2017-08-21T06:55:02.562Z,14.6
2017-08-21T07:00:03.080Z,15.1
2017-08-21T07:05:02.445Z,15.1
2017-08-21T07:10:02.931Z,15.5
2017-08-21T07:15:02.572Z,15.6
2017-08-21T07:20:03.040Z,15.8
2017-08-21T07:25:02.528Z,15.8
2017-08-21T07:30:03.001Z,15.6
2017-08-21T07:35:02.657Z,15.3
2017-08-21T07:40:03.169Z,15.1
2017-08-21T07:45:02.700Z,15.3
2017-08-21T07:50:03.291Z,15.6
2017-08-21T07:55:02.831Z,16.2
2017-08-21T08:00:03.263Z,16.2
2017-08-21T08:05:02.638Z,16.6
2017-08-21T08:10:03.148Z,17.1
2017-08-21T08:15:02.700Z,17.5
2017-08-21T08:20:03.248Z,18.5
2017-08-21T08:30:02.482Z,19.1
2017-08-21T08:35:03.029Z,19.5
2017-08-21T08:40:02.674Z,19.3
2017-08-21T08:45:03.135Z,19.5
2017-08-21T08:50:02.581Z,20.2
2017-08-21T08:55:03.035Z,19.5
2017-08-21T09:00:02.578Z,20.2
2017-08-21T09:05:03.066Z,20.3
2017-08-21T09:10:02.494Z,20.7
2017-08-21T09:15:03.048Z,20.8
2017-08-21T09:20:02.530Z,21.0
2017-08-21T09:25:03.116Z,20.8
2017-08-21T09:30:02.537Z,22.1
2017-08-21T09:35:03.072Z,21.3
2017-08-21T09:40:02.492Z,21.6
2017-08-21T09:45:02.995Z,21.8
2017-08-21T09:50:02.599Z,23.1
2017-08-21T09:55:03.135Z,20.7
2017-08-21T10:00:02.586Z,20.3
2017-08-21T10:05:03.194Z,20.7
2017-08-21T10:10:02.853Z,20.3
2017-08-21T10:15:03.339Z,20.7
2017-08-21T10:20:02.711Z,21.5
2017-08-21T10:25:03.359Z,21.3
2017-08-21T10:30:03.042Z,22.1
2017-08-21T10:35:02.623Z,20.7
2017-08-21T10:40:03.118Z,22.3
2017-08-21T10:45:02.567Z,21.2
2017-08-21T10:50:03.154Z,21.2
2017-08-21T10:55:02.592Z,23.1
2017-08-21T11:00:03.016Z,21.6
2017-08-21T11:05:02.444Z,22.0
2017-08-21T11:10:02.949Z,21.3
2017-08-21T11:15:02.390Z,20.8
2017-08-21T11:20:02.891Z,21.7
2017-08-21T11:25:03.382Z,22.1
2017-08-21T11:30:02.845Z,21.5
2017-08-21T11:35:03.290Z,21.5
2017-08-21T11:40:02.877Z,21.7
2017-08-21T11:45:03.330Z,21.6
2017-08-21T11:50:02.840Z,21.6
2017-08-21T11:55:02.446Z,21.3
2017-08-21T12:00:02.852Z,22.0
2017-08-21T12:05:02.504Z,22.3
2017-08-21T12:10:03.190Z,22.5
2017-08-21T12:15:02.715Z,23.8
2017-08-21T12:20:03.359Z,24.0
2017-08-21T12:25:02.918Z,23.6
2017-08-21T12:30:02.429Z,23.3
2017-08-21T12:35:02.965Z,23.7
2017-08-21T12:40:02.514Z,23.2
2017-08-21T12:45:02.892Z,21.8
2017-08-21T12:50:03.347Z,21.7
2017-08-21T12:55:02.814Z,21.3
2017-08-21T13:00:03.269Z,21.5
2017-08-21T13:05:02.857Z,22.1
2017-08-21T13:10:02.364Z,22.1
2017-08-21T13:15:02.869Z,21.7
2017-08-21T13:20:02.420Z,21.6
2017-08-21T13:25:02.955Z,21.6
2017-08-21T13:30:03.376Z,21.3
2017-08-21T13:35:02.927Z,21.5
2017-08-21T13:40:02.517Z,21.3
2017-08-21T13:45:03.018Z,21.7
2017-08-21T13:50:02.720Z,21.8
2017-08-21T13:55:03.166Z,22.2
2017-08-21T14:00:02.662Z,22.2
2017-08-21T14:05:03.200Z,21.6
2017-08-21T14:10:02.749Z,22.0
2017-08-21T14:15:03.185Z,21.7
2017-08-21T14:20:02.669Z,22.3
2017-08-21T14:25:03.104Z,22.1
2017-08-21T14:30:02.524Z,22.3
2017-08-21T14:35:03.098Z,22.5
2017-08-21T14:40:02.662Z,23.6
2017-08-21T14:45:03.055Z,24.3
2017-08-21T14:50:02.631Z,25.8
2017-08-21T14:55:03.114Z,23.7
2017-08-21T15:00:02.619Z,22.7
2017-08-21T15:05:02.996Z,21.7
2017-08-21T15:10:02.443Z,21.8
2017-08-21T15:15:02.961Z,23.6
2017-08-21T15:20:02.501Z,23.2
2017-08-21T15:25:03.095Z,23.3
2017-08-21T15:30:02.578Z,23.8
2017-08-21T15:35:03.142Z,24.3
2017-08-21T15:40:02.695Z,23.0
2017-08-21T15:45:03.094Z,23.0
2017-08-21T15:50:02.560Z,22.6
2017-08-21T15:55:03.018Z,22.7
2017-08-21T16:00:02.483Z,22.1
2017-08-21T16:05:02.965Z,22.6
2017-08-21T16:10:02.644Z,22.6
2017-08-21T16:15:03.190Z,22.2
2017-08-21T16:20:02.825Z,22.2
2017-08-21T16:25:03.378Z,22.1
2017-08-21T16:30:03.083Z,23.1
2017-08-21T16:35:02.698Z,23.2
2017-08-21T16:40:03.216Z,22.2
2017-08-21T16:45:02.838Z,22.0
2017-08-21T16:50:03.286Z,22.6
2017-08-21T16:55:02.823Z,23.1
2017-08-21T17:00:03.362Z,22.7
2017-08-21T17:05:02.839Z,22.7
2017-08-21T17:10:02.386Z,21.8
2017-08-21T17:15:02.872Z,22.1
2017-08-21T17:20:02.403Z,22.1
2017-08-21T17:25:02.800Z,21.7
2017-08-21T17:30:03.342Z,21.5
2017-08-21T17:35:02.763Z,21.3
2017-08-21T17:40:03.371Z,21.2
2017-08-21T17:45:02.800Z,21.2
2017-08-21T17:50:03.241Z,21.2
2017-08-21T17:55:02.786Z,20.7
2017-08-21T18:00:03.329Z,20.6
2017-08-21T18:05:02.763Z,20.3
2017-08-21T18:10:02.400Z,20.2
2017-08-21T18:15:02.884Z,19.7
2017-08-21T18:20:03.346Z,19.3
2017-08-21T18:25:02.882Z,19.0
2017-08-21T18:30:03.318Z,19.0
2017-08-21T18:35:02.891Z,18.6
2017-08-21T18:40:02.581Z,18.5
2017-08-21T18:45:03.119Z,18.1
2017-08-21T18:50:02.665Z,17.7
2017-08-21T18:55:03.272Z,17.7
2017-08-21T19:00:02.651Z,17.3
2017-08-21T19:05:03.173Z,17.2
2017-08-21T19:10:02.746Z,16.7
2017-08-21T19:15:03.206Z,16.7
2017-08-21T19:20:02.653Z,16.7
2017-08-21T19:25:03.081Z,16.6
2017-08-21T19:30:02.561Z,16.3
2017-08-21T19:35:03.112Z,16.2
2017-08-21T19:40:02.683Z,16.2
2017-08-21T19:45:03.228Z,16.2
2017-08-21T19:50:02.732Z,16.0
2017-08-21T19:55:03.197Z,15.8
2017-08-21T20:00:02.591Z,15.8
2017-08-21T20:05:03.080Z,15.8
2017-08-21T20:10:02.573Z,15.6
2017-08-21T20:15:03.147Z,15.5
2017-08-21T20:20:02.637Z,15.3
2017-08-21T20:25:03.054Z,15.1
2017-08-21T20:30:02.561Z,15.1
2017-08-21T20:35:02.986Z,15.1
2017-08-21T20:40:02.452Z,15.0
2017-08-21T20:45:02.881Z,14.8
2017-08-21T20:50:03.336Z,14.8
2017-08-21T20:55:02.783Z,14.8
2017-08-21T21:00:03.534Z,14.8
2017-08-21T21:05:03.024Z,14.8
2017-08-21T21:10:02.467Z,14.6
2017-08-21T21:15:02.902Z,14.6
2017-08-21T21:20:02.454Z,14.3
2017-08-21T21:25:03.043Z,14.3
2017-08-21T21:30:02.431Z,14.3
2017-08-21T21:35:02.865Z,14.3
2017-08-21T21:40:02.460Z,14.5
2017-08-21T21:45:02.982Z,14.6
2017-08-21T21:50:02.439Z,14.6
2017-08-21T21:55:03.022Z,14.5
2017-08-21T22:00:02.591Z,14.3
2017-08-21T22:05:03.121Z,14.3
2017-08-21T22:10:02.727Z,14.3
2017-08-21T22:15:03.218Z,14.3
2017-08-21T22:20:02.636Z,14.1
2017-08-21T22:25:03.112Z,14.1
2017-08-21T22:30:02.688Z,14.1
2017-08-21T22:35:03.108Z,13.8
2017-08-21T22:40:02.651Z,13.8
2017-08-21T22:45:03.138Z,13.8
2017-08-21T22:50:02.558Z,14.0
2017-08-21T22:55:03.108Z,13.6
2017-08-21T23:00:02.856Z,13.8
2017-08-21T23:05:02.428Z,14.0
2017-08-21T23:10:02.884Z,14.0
2017-08-21T23:15:03.302Z,14.0
2017-08-21T23:20:02.908Z,13.8
2017-08-21T23:25:02.631Z,13.8
2017-08-21T23:30:03.139Z,13.6
2017-08-21T23:35:02.659Z,13.5
2017-08-21T23:40:03.096Z,13.5
2017-08-21T23:45:02.634Z,13.5
2017-08-21T23:50:03.283Z,13.6
2017-08-21T23:55:02.755Z,13.6
